createdAt,value
2022-11-06T00:01:44.362Z,10.60
2022-11-06T00:04:11.105Z,10.60
2022-11-06T00:06:50.008Z,10.60
2022-11-06T00:09:19.996Z,10.50
2022-11-06T00:11:48.747Z,10.50
2022-11-06T00:14:17.489Z,10.50
2022-11-06T00:16:45.776Z,10.40
2022-11-06T00:19:12.782Z,10.40
2022-11-06T00:21:39.737Z,10.40
2022-11-06T00:24:08.052Z,10.40
2022-11-06T00:26:35.658Z,10.40
2022-11-06T00:29:04.259Z,10.40
2022-11-06T00:31:35.525Z,10.40
2022-11-06T00:34:03.937Z,10.40
2022-11-06T00:36:31.200Z,10.40
2022-11-06T00:38:59.231Z,10.40
2022-11-06T00:41:26.934Z,10.40
2022-11-06T00:43:59.188Z,10.40
2022-11-06T00:46:27.237Z,10.40
2022-11-06T00:48:55.070Z,10.30
2022-11-06T00:51:29.274Z,10.40
2022-11-06T00:53:58.035Z,10.30
2022-11-06T00:56:25.828Z,10.30
2022-11-06T00:58:52.680Z,10.30
2022-11-06T01:01:25.359Z,10.30
2022-11-06T01:03:56.399Z,10.30
2022-11-06T01:06:27.996Z,10.30
2022-11-06T01:08:55.156Z,10.30
2022-11-06T01:11:27.150Z,10.30
2022-11-06T01:13:56.157Z,10.30
2022-11-06T01:16:24.290Z,10.30
2022-11-06T01:18:51.753Z,10.30
2022-11-06T01:21:21.475Z,10.30
2022-11-06T01:23:53.344Z,10.30
2022-11-06T01:26:36.844Z,10.30
2022-11-06T01:29:06.527Z,10.30
2022-11-06T01:31:34.585Z,10.30
2022-11-06T01:34:02.531Z,10.30
2022-11-06T01:36:30.367Z,10.30
2022-11-06T01:39:00.787Z,10.30
2022-11-06T01:41:37.949Z,10.40
2022-11-06T01:44:33.568Z,10.40
2022-11-06T01:47:02.450Z,10.40
2022-11-06T01:49:33.570Z,10.40
2022-11-06T01:52:06.165Z,10.40
2022-11-06T01:54:36.511Z,10.40
2022-11-06T01:57:04.393Z,10.40
2022-11-06T01:59:34.053Z,10.50
2022-11-06T02:02:00.951Z,10.50
2022-11-06T02:04:36.135Z,10.50
2022-11-06T02:07:03.671Z,10.50
2022-11-06T02:09:31.929Z,10.50
2022-11-06T02:12:28.725Z,10.60
2022-11-06T02:15:18.956Z,10.60
2022-11-06T02:18:27.305Z,10.60
2022-11-06T02:21:15.563Z,10.60
2022-11-06T02:24:04.226Z,10.60
2022-11-06T02:26:53.424Z,10.60
2022-11-06T02:29:36.709Z,10.60
2022-11-06T02:32:14.183Z,10.60
2022-11-06T02:34:43.192Z,10.60
2022-11-06T02:37:16.721Z,10.60
2022-11-06T02:39:46.407Z,10.60
2022-11-06T02:42:16.390Z,10.60
2022-11-06T02:44:44.454Z,10.60
2022-11-06T02:47:14.963Z,10.60
2022-11-06T02:49:48.090Z,10.60
2022-11-06T02:52:19.105Z,10.60
2022-11-06T02:54:56.598Z,10.70
2022-11-06T02:57:26.578Z,10.70
2022-11-06T03:00:14.979Z,10.70
2022-11-06T03:02:55.635Z,10.70
2022-11-06T03:05:36.501Z,10.70
2022-11-06T03:08:09.820Z,10.70
2022-11-06T03:11:11.603Z,10.70
2022-11-06T03:13:51.129Z,10.70
2022-11-06T03:16:50.100Z,10.70
2022-11-06T03:19:22.900Z,10.80
2022-11-06T03:22:35.093Z,10.80
2022-11-06T03:25:07.979Z,10.80
2022-11-06T03:27:52.968Z,10.80
2022-11-06T03:30:20.160Z,10.80
2022-11-06T03:32:52.209Z,10.80
2022-11-06T03:35:36.481Z,10.80
2022-11-06T03:38:15.873Z,10.80
2022-11-06T03:40:49.725Z,10.80
2022-11-06T03:43:20.679Z,10.80
2022-11-06T03:45:49.934Z,10.80
2022-11-06T03:48:26.038Z,10.80
2022-11-06T03:51:07.046Z,10.80
2022-11-06T03:53:58.242Z,10.80
2022-11-06T03:56:46.113Z,10.80
2022-11-06T03:59:18.558Z,10.80
2022-11-06T04:01:47.403Z,10.80
2022-11-06T04:04:29.985Z,10.80
2022-11-06T04:07:02.477Z,10.80
2022-11-06T04:09:51.527Z,10.80
2022-11-06T04:12:41.470Z,10.80
2022-11-06T04:15:13.151Z,10.80
2022-11-06T04:17:40.885Z,10.80
2022-11-06T04:20:36.109Z,10.80
2022-11-06T04:23:14.053Z,10.80
2022-11-06T04:26:14.051Z,10.80
2022-11-06T04:28:48.346Z,10.70
2022-11-06T04:31:18.028Z,10.80
2022-11-06T04:33:55.518Z,10.70
2022-11-06T04:36:43.868Z,10.70
2022-11-06T04:39:18.745Z,10.70
2022-11-06T04:41:50.713Z,10.60
2022-11-06T04:44:33.581Z,10.60
2022-11-06T04:47:12.899Z,10.60
2022-11-06T04:49:42.600Z,10.60
2022-11-06T04:52:14.219Z,10.50
2022-11-06T04:54:41.441Z,10.50
2022-11-06T04:57:08.374Z,10.50
2022-11-06T04:59:36.978Z,10.50
2022-11-06T05:02:05.477Z,10.50
2022-11-06T05:04:32.673Z,10.40
2022-11-06T05:06:59.898Z,10.40
2022-11-06T05:09:26.602Z,10.40
2022-11-06T05:11:56.044Z,10.40
2022-11-06T05:14:25.352Z,10.40
2022-11-06T05:16:52.102Z,10.40
2022-11-06T05:19:18.774Z,10.40
2022-11-06T05:22:04.053Z,10.40
2022-11-06T05:24:30.937Z,10.40
2022-11-06T05:26:59.645Z,10.40
2022-11-06T05:29:26.901Z,10.40
2022-11-06T05:31:53.681Z,10.50
2022-11-06T05:34:21.076Z,10.50
2022-11-06T05:36:47.909Z,10.50
2022-11-06T05:39:14.652Z,10.60
2022-11-06T05:41:41.331Z,10.60
2022-11-06T05:44:08.213Z,10.60
2022-11-06T05:46:48.193Z,10.60
2022-11-06T05:49:16.649Z,10.70
2022-11-06T05:51:43.581Z,10.70
2022-11-06T05:54:10.355Z,10.70
2022-11-06T05:56:37.391Z,10.70
2022-11-06T05:59:04.233Z,10.70
2022-11-06T06:01:31.039Z,10.70
2022-11-06T06:03:57.985Z,10.80
2022-11-06T06:06:25.166Z,10.80
2022-11-06T06:08:51.840Z,10.80
2022-11-06T06:11:18.626Z,10.80
2022-11-06T06:13:45.489Z,10.80
2022-11-06T06:16:12.235Z,10.80
2022-11-06T06:18:39.035Z,10.80
2022-11-06T06:21:06.207Z,10.80
2022-11-06T06:23:33.055Z,10.80
2022-11-06T06:25:59.801Z,10.80
2022-11-06T06:28:26.943Z,10.80
2022-11-06T06:30:58.617Z,10.80
2022-11-06T06:33:28.015Z,10.80
2022-11-06T06:35:54.742Z,10.80
2022-11-06T06:38:23.800Z,10.90
2022-11-06T06:40:50.493Z,10.90
2022-11-06T06:43:17.243Z,10.90
2022-11-06T06:45:43.942Z,10.90
2022-11-06T06:48:10.979Z,10.90
2022-11-06T06:50:38.269Z,10.90
2022-11-06T06:53:06.957Z,10.90
2022-11-06T06:55:33.667Z,10.90
2022-11-06T06:58:01.571Z,11.00
2022-11-06T07:00:29.191Z,11.00
2022-11-06T07:02:56.813Z,11.00
2022-11-06T07:05:23.792Z,11.00
2022-11-06T07:07:50.765Z,11.00
2022-11-06T07:10:17.672Z,11.00
2022-11-06T07:12:44.450Z,11.00
2022-11-06T07:15:11.785Z,11.10
2022-11-06T07:17:38.578Z,11.10
2022-11-06T07:20:06.084Z,11.10
2022-11-06T07:22:37.441Z,11.20
2022-11-06T07:25:06.005Z,11.20
2022-11-06T07:27:33.766Z,11.20
2022-11-06T07:30:00.895Z,11.20
2022-11-06T07:32:28.124Z,11.20
2022-11-06T07:34:55.224Z,11.30
2022-11-06T07:37:22.098Z,11.30
2022-11-06T07:39:49.020Z,11.30
2022-11-06T07:42:15.705Z,11.30
2022-11-06T07:44:42.521Z,11.30
2022-11-06T07:47:12.223Z,11.40
2022-11-06T07:49:38.895Z,11.40
2022-11-06T07:52:06.443Z,11.40
2022-11-06T07:54:33.185Z,11.40
2022-11-06T07:56:59.867Z,11.40
2022-11-06T07:59:26.694Z,11.40
2022-11-06T08:01:53.611Z,11.50
2022-11-06T08:04:21.032Z,11.50
2022-11-06T08:06:47.783Z,11.50
2022-11-06T08:09:14.692Z,11.60
2022-11-06T08:11:44.197Z,11.60
2022-11-06T08:14:11.844Z,11.60
2022-11-06T08:16:38.549Z,11.60
2022-11-06T08:19:08.313Z,11.60
2022-11-06T08:21:35.058Z,11.60
2022-11-06T08:24:01.919Z,11.70
2022-11-06T08:26:28.706Z,11.70
2022-11-06T08:28:55.475Z,11.70
2022-11-06T08:31:22.532Z,12.00
2022-11-06T08:33:49.469Z,12.80
2022-11-06T08:36:16.817Z,13.60
2022-11-06T08:38:43.776Z,14.00
2022-11-06T08:41:12.167Z,14.30
2022-11-06T08:43:39.661Z,14.60
2022-11-06T08:46:10.496Z,14.40
2022-11-06T08:48:37.544Z,14.10
2022-11-06T08:51:05.337Z,13.80
2022-11-06T08:53:32.314Z,13.60
2022-11-06T08:56:03.986Z,13.50
2022-11-06T08:58:31.056Z,13.30
2022-11-06T09:00:57.824Z,13.20
2022-11-06T09:03:24.631Z,13.10
2022-11-06T09:05:51.583Z,13.20
2022-11-06T09:08:18.317Z,13.20
2022-11-06T09:10:45.153Z,13.20
2022-11-06T09:13:12.664Z,13.10
2022-11-06T09:15:40.168Z,13.10
2022-11-06T09:18:06.997Z,13.00
2022-11-06T09:20:34.034Z,13.00
2022-11-06T09:23:06.541Z,13.00
2022-11-06T09:25:33.413Z,13.10
2022-11-06T09:28:02.834Z,13.10
2022-11-06T09:30:33.448Z,13.10
2022-11-06T09:33:02.591Z,13.20
2022-11-06T09:35:31.998Z,13.20
2022-11-06T09:38:03.952Z,13.20
2022-11-06T09:40:41.354Z,13.30
2022-11-06T09:43:58.124Z,13.30
2022-11-06T09:46:28.882Z,13.30
2022-11-06T09:49:02.830Z,13.30
2022-11-06T09:51:41.792Z,13.20
2022-11-06T09:54:22.678Z,13.20
2022-11-06T09:56:55.170Z,13.20
2022-11-06T09:59:22.579Z,13.30
2022-11-06T10:01:54.509Z,13.30
2022-11-06T10:04:31.014Z,13.30
2022-11-06T10:06:59.326Z,13.40
2022-11-06T10:09:26.141Z,13.40
2022-11-06T10:12:24.810Z,13.50
2022-11-06T10:15:06.460Z,13.50
2022-11-06T10:17:54.869Z,13.50
2022-11-06T10:20:30.336Z,13.50
2022-11-06T10:23:03.590Z,13.50
2022-11-06T10:26:08.928Z,13.60
2022-11-06T10:29:00.402Z,13.70
2022-11-06T10:31:37.245Z,13.70
2022-11-06T10:34:17.195Z,13.80
2022-11-06T10:36:54.819Z,14.00
2022-11-06T10:39:32.007Z,14.00
2022-11-06T10:42:20.850Z,14.00
2022-11-06T10:44:55.591Z,14.00
2022-11-06T10:47:27.134Z,13.90
2022-11-06T10:49:56.843Z,13.90
2022-11-06T10:52:44.509Z,13.90
2022-11-06T10:55:34.891Z,13.90
2022-11-06T10:58:06.028Z,14.00
2022-11-06T11:00:34.495Z,14.00
2022-11-06T11:03:07.773Z,14.00
2022-11-06T11:05:42.938Z,14.00
2022-11-06T11:08:28.691Z,14.00
2022-11-06T11:11:05.362Z,14.00
2022-11-06T11:13:33.542Z,14.10
2022-11-06T11:16:03.181Z,14.10
2022-11-06T11:18:34.023Z,14.20
2022-11-06T11:21:19.407Z,14.30
2022-11-06T11:24:05.605Z,14.40
2022-11-06T11:26:37.061Z,14.40
2022-11-06T11:29:17.106Z,14.40
2022-11-06T11:31:57.960Z,14.40
2022-11-06T11:34:30.862Z,14.30
2022-11-06T11:37:03.209Z,14.30
2022-11-06T11:39:35.526Z,14.30
2022-11-06T11:42:21.015Z,14.30
2022-11-06T11:44:47.898Z,14.20
2022-11-06T11:47:23.162Z,14.20
2022-11-06T11:49:50.375Z,14.30
2022-11-06T11:52:21.180Z,14.30
2022-11-06T11:54:53.711Z,14.30
2022-11-06T11:57:26.589Z,14.30
2022-11-06T12:00:00.534Z,14.30
2022-11-06T12:02:31.642Z,14.20
2022-11-06T12:05:21.643Z,14.20
2022-11-06T12:07:53.329Z,14.20
2022-11-06T12:10:34.956Z,14.10
2022-11-06T12:13:23.078Z,14.10
2022-11-06T12:16:01.138Z,14.10
2022-11-06T12:18:35.260Z,14.10
2022-11-06T12:21:08.690Z,14.00
2022-11-06T12:24:03.920Z,14.00
2022-11-06T12:26:37.008Z,14.00
2022-11-06T12:29:12.858Z,13.90
2022-11-06T12:31:55.495Z,13.90
2022-11-06T12:34:39.574Z,13.90
2022-11-06T12:37:32.054Z,13.80
2022-11-06T12:40:37.124Z,13.80
2022-11-06T12:43:25.434Z,13.80
2022-11-06T12:46:14.214Z,13.80
2022-11-06T12:49:00.797Z,13.70
2022-11-06T12:51:44.290Z,13.70
2022-11-06T12:54:39.001Z,13.70
2022-11-06T12:57:34.494Z,13.70
2022-11-06T13:00:05.453Z,13.60
2022-11-06T13:03:03.271Z,13.60
2022-11-06T13:05:40.902Z,13.60
2022-11-06T13:08:28.798Z,13.60
2022-11-06T13:11:19.849Z,13.60
2022-11-06T13:14:01.780Z,13.50
2022-11-06T13:16:46.707Z,13.50
2022-11-06T13:19:31.017Z,13.50
2022-11-06T13:22:17.044Z,13.50
2022-11-06T13:24:46.504Z,13.40
2022-11-06T13:27:44.419Z,13.40
2022-11-06T13:30:27.728Z,13.30
2022-11-06T13:33:07.937Z,13.30
2022-11-06T13:35:38.894Z,13.20
2022-11-06T13:38:32.687Z,13.20
2022-11-06T13:41:05.273Z,13.10
2022-11-06T13:43:41.350Z,13.10
2022-11-06T13:46:34.759Z,13.00
2022-11-06T13:49:26.196Z,13.00
2022-11-06T13:51:54.678Z,12.90
2022-11-06T13:54:33.626Z,12.80
2022-11-06T13:57:07.673Z,12.70
2022-11-06T14:00:08.004Z,12.60
2022-11-06T14:02:51.625Z,12.60
2022-11-06T14:05:31.332Z,12.40
2022-11-06T14:08:02.784Z,12.30
2022-11-06T14:10:38.457Z,12.30
2022-11-06T14:13:06.737Z,12.20
2022-11-06T14:15:39.987Z,12.10
2022-11-06T14:18:08.907Z,12.00
2022-11-06T14:20:38.189Z,12.00
2022-11-06T14:23:29.636Z,11.90
2022-11-06T14:26:08.394Z,11.80
2022-11-06T14:28:40.669Z,11.70
2022-11-06T14:31:14.991Z,11.60
2022-11-06T14:33:43.225Z,11.50
2022-11-06T14:36:29.340Z,11.40
2022-11-06T14:38:58.776Z,11.40
2022-11-06T14:41:34.533Z,11.30
2022-11-06T14:44:12.887Z,11.30
2022-11-06T14:46:39.788Z,11.20
2022-11-06T14:49:16.177Z,11.20
2022-11-06T14:51:45.430Z,11.10
2022-11-06T14:54:24.502Z,11.10
2022-11-06T14:56:57.398Z,11.00
2022-11-06T14:59:34.285Z,11.00
2022-11-06T15:02:24.779Z,11.00
2022-11-06T15:05:07.124Z,10.90
2022-11-06T15:08:04.005Z,10.80
2022-11-06T15:10:44.851Z,10.80
2022-11-06T15:13:17.837Z,10.70
2022-11-06T15:15:49.074Z,10.70
2022-11-06T15:18:20.730Z,10.60
2022-11-06T15:21:03.493Z,10.60
2022-11-06T15:24:12.546Z,10.60
2022-11-06T15:26:45.513Z,10.50
2022-11-06T15:29:31.405Z,10.50
2022-11-06T15:32:07.486Z,10.50
2022-11-06T15:34:38.061Z,10.40
2022-11-06T15:37:16.450Z,10.40
2022-11-06T15:40:00.893Z,10.30
2022-11-06T15:42:35.608Z,10.30
2022-11-06T15:45:19.407Z,10.20
2022-11-06T15:47:59.086Z,10.20
2022-11-06T15:50:28.512Z,10.10
2022-11-06T15:53:09.302Z,10.10
2022-11-06T15:55:38.431Z,10.10
2022-11-06T15:58:12.865Z,10.00
2022-11-06T16:00:43.995Z,10.00
2022-11-06T16:03:15.851Z,10.00
2022-11-06T16:05:43.457Z,9.90
2022-11-06T16:08:18.906Z,9.90
2022-11-06T16:10:50.515Z,9.90
2022-11-06T16:13:20.466Z,9.80
2022-11-06T16:15:52.529Z,9.80
2022-11-06T16:18:31.148Z,9.80
2022-11-06T16:21:08.401Z,9.70
2022-11-06T16:23:57.374Z,9.70
2022-11-06T16:26:32.870Z,9.70
2022-11-06T16:29:00.753Z,9.70
2022-11-06T16:31:29.530Z,9.60
2022-11-06T16:34:06.781Z,9.60
2022-11-06T16:37:03.720Z,9.60
2022-11-06T16:39:47.855Z,9.60
2022-11-06T16:42:22.052Z,9.60
2022-11-06T16:44:50.576Z,9.50
2022-11-06T16:47:21.689Z,9.50
2022-11-06T16:49:53.961Z,9.50
2022-11-06T16:52:29.654Z,9.50
2022-11-06T16:55:04.909Z,9.50
2022-11-06T16:57:42.827Z,9.50
2022-11-06T17:00:21.749Z,9.40
2022-11-06T17:03:02.551Z,9.40
2022-11-06T17:05:33.641Z,9.40
2022-11-06T17:08:06.578Z,9.40
2022-11-06T17:10:44.245Z,9.40
2022-11-06T17:13:18.633Z,9.30
2022-11-06T17:16:00.616Z,9.30
2022-11-06T17:18:31.814Z,9.30
2022-11-06T17:21:00.741Z,9.30
2022-11-06T17:23:29.583Z,9.30
2022-11-06T17:26:12.854Z,9.30
2022-11-06T17:28:42.617Z,9.30
2022-11-06T17:31:14.408Z,9.30
2022-11-06T17:33:41.872Z,9.30
2022-11-06T17:36:26.922Z,9.30
2022-11-06T17:38:55.289Z,9.30
2022-11-06T17:41:32.380Z,9.30
2022-11-06T17:44:01.495Z,9.30
2022-11-06T17:46:34.382Z,9.30
2022-11-06T17:49:02.509Z,9.30
2022-11-06T17:51:48.087Z,9.40
2022-11-06T17:54:15.567Z,9.30
2022-11-06T17:56:44.048Z,9.30
2022-11-06T17:59:14.542Z,9.40
2022-11-06T18:01:42.166Z,9.40
2022-11-06T18:04:09.486Z,9.40
2022-11-06T18:06:36.411Z,9.40
2022-11-06T18:09:05.796Z,9.40
2022-11-06T18:11:33.092Z,9.40
2022-11-06T18:14:03.176Z,9.50
2022-11-06T18:16:32.374Z,9.50
2022-11-06T18:18:59.471Z,9.50
2022-11-06T18:21:28.080Z,9.50
2022-11-06T18:23:54.889Z,9.50
2022-11-06T18:26:22.083Z,9.50
2022-11-06T18:28:50.101Z,9.60
2022-11-06T18:31:17.654Z,9.50
2022-11-06T18:33:44.857Z,9.50
2022-11-06T18:36:13.251Z,9.60
2022-11-06T18:38:40.218Z,9.60
2022-11-06T18:41:08.544Z,9.60
2022-11-06T18:43:35.643Z,9.60
2022-11-06T18:46:06.594Z,9.70
2022-11-06T18:48:34.024Z,9.70
2022-11-06T18:51:11.228Z,9.70
2022-11-06T18:53:44.145Z,9.70
2022-11-06T18:56:12.913Z,9.70
2022-11-06T18:58:42.971Z,9.80
2022-11-06T19:01:15.033Z,9.80
2022-11-06T19:03:42.319Z,9.80
2022-11-06T19:06:14.651Z,9.80
2022-11-06T19:08:42.885Z,9.80
2022-11-06T19:11:09.735Z,9.90
2022-11-06T19:13:46.241Z,9.90
2022-11-06T19:16:14.848Z,9.90
2022-11-06T19:18:41.850Z,9.90
2022-11-06T19:21:10.485Z,9.90
2022-11-06T19:23:42.380Z,10.00
2022-11-06T19:26:30.564Z,10.00
2022-11-06T19:29:00.046Z,10.00
2022-11-06T19:31:30.252Z,10.00
2022-11-06T19:33:59.231Z,10.00
2022-11-06T19:36:26.105Z,10.00
2022-11-06T19:38:53.807Z,10.10
2022-11-06T19:41:21.087Z,10.10
2022-11-06T19:43:47.985Z,10.10
2022-11-06T19:46:25.095Z,10.10
2022-11-06T19:48:57.271Z,10.20
2022-11-06T19:51:24.927Z,10.20
2022-11-06T19:53:53.441Z,10.20
2022-11-06T19:56:21.407Z,10.30
2022-11-06T19:58:50.083Z,10.30
2022-11-06T20:01:23.147Z,10.30
2022-11-06T20:03:50.009Z,10.30
2022-11-06T20:06:17.432Z,10.40
2022-11-06T20:08:47.982Z,10.40
2022-11-06T20:11:15.381Z,10.40
2022-11-06T20:13:43.761Z,10.50
2022-11-06T20:16:16.766Z,10.50
2022-11-06T20:18:44.194Z,10.60
2022-11-06T20:21:12.370Z,10.60
2022-11-06T20:23:39.644Z,10.60
2022-11-06T20:26:06.685Z,10.60
2022-11-06T20:28:36.821Z,10.70
2022-11-06T20:31:11.736Z,10.70
2022-11-06T20:33:39.149Z,10.80
2022-11-06T20:36:31.165Z,10.80
2022-11-06T20:38:59.631Z,10.80
2022-11-06T20:41:26.954Z,10.90
2022-11-06T20:43:54.703Z,10.90
2022-11-06T20:46:22.320Z,11.00
2022-11-06T20:48:49.853Z,11.00
2022-11-06T20:51:22.993Z,11.00
2022-11-06T20:53:52.812Z,11.10
2022-11-06T20:56:21.795Z,11.10
2022-11-06T20:58:48.571Z,11.10
2022-11-06T21:01:24.681Z,11.10
2022-11-06T21:03:52.233Z,11.10
2022-11-06T21:06:20.629Z,11.10
2022-11-06T21:08:47.784Z,11.10
2022-11-06T21:11:42.397Z,11.10
2022-11-06T21:14:11.615Z,11.10
2022-11-06T21:16:38.637Z,11.20
2022-11-06T21:19:05.544Z,11.20
2022-11-06T21:21:34.332Z,11.20
2022-11-06T21:24:02.681Z,11.20
2022-11-06T21:26:35.429Z,11.20
2022-11-06T21:29:04.666Z,11.30
2022-11-06T21:31:32.532Z,11.30
2022-11-06T21:34:00.768Z,11.30
2022-11-06T21:36:30.150Z,11.40
2022-11-06T21:39:00.900Z,11.40
2022-11-06T21:41:29.560Z,11.40
2022-11-06T21:44:00.422Z,11.40
2022-11-06T21:46:29.868Z,11.40
2022-11-06T21:48:57.361Z,11.40
2022-11-06T21:51:27.462Z,11.40
2022-11-06T21:54:14.078Z,11.40
2022-11-06T21:56:42.833Z,11.40
2022-11-06T21:59:14.247Z,11.40
2022-11-06T22:01:42.277Z,11.50
2022-11-06T22:04:10.034Z,11.50
2022-11-06T22:06:40.126Z,11.50
2022-11-06T22:09:07.105Z,11.50
2022-11-06T22:11:59.351Z,11.50
2022-11-06T22:14:27.454Z,11.50
2022-11-06T22:16:54.201Z,11.60
2022-11-06T22:19:23.759Z,11.60
2022-11-06T22:21:50.459Z,11.60
2022-11-06T22:24:17.185Z,11.60
2022-11-06T22:26:44.140Z,11.60
2022-11-06T22:29:13.336Z,11.60
2022-11-06T22:31:40.302Z,11.60
2022-11-06T22:34:07.288Z,11.60
2022-11-06T22:36:36.030Z,11.60
2022-11-06T22:39:09.601Z,11.60
2022-11-06T22:41:37.294Z,11.60
2022-11-06T22:44:04.878Z,11.60
2022-11-06T22:46:31.953Z,11.60
2022-11-06T22:48:58.911Z,11.60
2022-11-06T22:51:28.090Z,11.60
2022-11-06T22:53:55.043Z,11.60
2022-11-06T22:56:23.466Z,11.60
2022-11-06T22:59:09.047Z,11.60
2022-11-06T23:01:41.970Z,11.60
2022-11-06T23:04:15.200Z,11.60
2022-11-06T23:06:43.358Z,11.70
2022-11-06T23:09:13.591Z,11.70
2022-11-06T23:11:40.269Z,11.70
2022-11-06T23:14:09.274Z,11.70
2022-11-06T23:16:55.209Z,11.70
2022-11-06T23:19:22.351Z,11.80
2022-11-06T23:21:49.269Z,11.80
2022-11-06T23:24:16.239Z,11.90
2022-11-06T23:26:44.271Z,11.90
2022-11-06T23:29:11.542Z,11.90
2022-11-06T23:31:38.481Z,11.90
2022-11-06T23:34:05.369Z,11.90
2022-11-06T23:36:32.183Z,11.90
2022-11-06T23:38:58.970Z,11.90
2022-11-06T23:41:45.389Z,11.90
2022-11-06T23:44:36.288Z,11.90
2022-11-06T23:47:03.254Z,11.90
2022-11-06T23:49:30.075Z,12.00
2022-11-06T23:51:57.177Z,12.00
2022-11-06T23:54:25.447Z,12.00
2022-11-06T23:56:52.207Z,12.00
2022-11-06T23:59:22.203Z,12.00
